Time;durP1;ratioP1;P1;durP2;ratioP2;P2;SDS_P1;SDS_P2;PMS_P1;PMS_P2;Temp;Humidity;BMP_temperature;BMP_pressure;BME280_temperature;BME280_humidity;BME280_pressure;Samples;Min_cycle;Max_cycle;Signal;HPM_P1;HPM_P2
2022/12/19 00:00:31;;;;;;;;;;;;;;;;;;4955239;28;19982;-91
2022/12/19 00:02:57;;;;;;;;;;;;;;;;;;4975710;28;20452;-92
2022/12/19 00:05:23;;;;;;;;;;;;;;;;;;4975779;28;19918;-93
2022/12/19 00:07:48;;;;;;;;;;;;;;;;;;4974785;28;20387;-92
2022/12/19 00:10:14;;;;;;;;;;;;;;;;;;4974941;28;19922;-91
2022/12/19 00:12:39;;;;;;;;;;;;;;;;;;4974724;28;19942;-89
2022/12/19 00:15:05;;;;;;;;;;;;;;;;;;4973938;28;19918;-92
2022/12/19 00:17:31;;;;;;;;;;;;;;;;;;4974703;28;19922;-92
2022/12/19 00:19:57;;;;;;;;;;;;;;;;;;4956864;28;19922;-91
2022/12/19 00:22:22;;;;;;;;;;;;;;;;;;4974994;28;19925;-94
2022/12/19 00:24:48;;;;;;;;;;;;;;;;;;4957395;28;19965;-92
2022/12/19 00:27:13;;;;;;;;;;;;;;;;;;4957433;28;19926;-92
2022/12/19 00:29:38;;;;;;;;;;;;;;;;;;4957639;28;19918;-92
2022/12/19 00:32:04;;;;;;;;;;;;;;;;;;4958112;28;19922;-92
2022/12/19 00:34:29;;;;;;;;;;;;;;;;;;4975335;28;19922;-91
2022/12/19 00:36:55;;;;;;;;;;;;;;;;;;4976378;28;19925;-90
2022/12/19 00:39:20;;;;;;;;;;;;;;;;;;4977783;28;20329;-92
2022/12/19 00:41:46;;;;;;;;;;;;;;;;;;4977160;28;19962;-89
2022/12/19 00:44:15;;;;;;;;;;;;;;;;;;4943514;28;20374;-92
2022/12/19 00:46:40;;;;;;;;;;;;;;;;;;4959891;28;20291;-91
2022/12/19 00:49:06;;;;;;;;;;;;;;;;;;4978948;28;19945;-91
2022/12/19 00:51:32;;;;;;;;;;;;;;;;;;4960667;28;19922;-91
2022/12/19 00:53:58;;;;;;;;;;;;;;;;;;4977631;28;19961;-90
2022/12/19 00:56:26;;;;;;;;;;;;;;;;;;4979518;28;19945;-90
2022/12/19 00:58:52;;;;;;;;;;;;;;;;;;4977376;28;19932;-90
2022/12/19 01:01:19;;;;;;;;;;;;;;;;;;4977197;28;20278;-90
2022/12/19 01:03:45;;;;;;;;;;;;;;;;;;4977331;28;19966;-91
2022/12/19 01:06:11;;;;;;;;;;;;;;;;;;4960060;28;19969;-92
2022/12/19 01:08:36;;;;;;;;;;;;;;;;;;4975617;28;19922;-91
2022/12/19 01:11:04;;;;;;;;;;;;;;;;;;4974827;28;19925;-92
2022/12/19 01:13:30;;;;;;;;;;;;;;;;;;4977182;28;20409;-92
2022/12/19 01:16:00;;;;;;;;;;;;;;;;;;4975973;28;19969;-92
2022/12/19 01:18:26;;;;;;;;;;;;;;;;;;4975991;28;19929;-90
2022/12/19 01:20:52;;;;;;;;;;;;;;;;;;4977189;28;19922;-92
2022/12/19 01:23:17;;;;;;;;;;;;;;;;;;4978462;28;19918;-91
2022/12/19 01:25:47;;;;;;;;;;;;;;;;;;4978298;28;19918;-92
2022/12/19 01:28:13;;;;;;;;;;;;;;;;;;4981964;28;19949;-90
2022/12/19 01:30:39;;;;;;;;;;;;;;;;;;4980522;28;19918;-92
2022/12/19 01:33:04;;;;;;;;;;;;;;;;;;4980779;28;19918;-92
2022/12/19 01:35:30;;;;;;;;;;;;;;;;;;4978835;28;20325;-92
2022/12/19 01:37:55;;;;;;;;;;;;;;;;;;4961481;28;20285;-90
2022/12/19 01:40:21;;;;;;;;;;;;;;;;;;4978052;28;19969;-92
2022/12/19 01:42:46;;;;;;;;;;;;;;;;;;4961333;28;19929;-90
2022/12/19 01:45:15;;;;;;;;;;;;;;;;;;4978915;28;20016;-91
2022/12/19 01:47:45;;;;;;;;;;;;;;;;;;4960589;28;20329;-93
2022/12/19 01:50:13;;;;;;;;;;;;;;;;;;4979522;28;19918;-93
2022/12/19 01:52:38;;;;;;;;;;;;;;;;;;4978430;28;19929;-95
2022/12/19 01:55:04;;;;;;;;;;;;;;;;;;4978996;28;19922;-93
2022/12/19 01:57:29;;;;;;;;;;;;;;;;;;4977738;28;19926;-92
2022/12/19 01:59:56;;;;;;;;;;;;;;;;;;4982513;28;19918;-93
2022/12/19 02:02:28;;;;;;;;;;;;;;;;;;4979415;28;20021;-92
2022/12/19 02:04:54;;;;;;;;;;;;;;;;;;4980422;28;19981;-94
2022/12/19 02:07:21;;;;;;;;;;;;;;;;;;4984695;28;19922;-93
2022/12/19 02:09:47;;;;;;;;;;;;;;;;;;4981404;28;19914;-92
2022/12/19 02:12:13;;;;;;;;;;;;;;;;;;4960996;28;19922;-92
2022/12/19 02:14:38;;;;;;;;;;;;;;;;;;4960713;28;19918;-93
2022/12/19 02:17:12;;;;;;;;;;;;;;;;;;4979476;28;20078;-92
2022/12/19 02:20:04;;;;;;;;;;;;;;;;;;4978690;28;19922;-94
2022/12/19 02:22:44;;;;;;;;;;;;;;;;;;4972670;28;20448;-93
2022/12/19 02:25:18;;;;;;;;;;;;;;;;;;4980576;28;19914;-93
2022/12/19 02:27:44;;;;;;;;;;;;;;;;;;4978945;28;19918;-93
2022/12/19 02:30:13;;;;;;;;;;;;;;;;;;4980122;28;19921;-95
2022/12/19 02:32:44;;;;;;;;;;;;;;;;;;4979845;28;19918;-94
2022/12/19 02:35:21;;;;;;;;;;;;;;;;;;4979201;28;19922;-93
2022/12/19 02:37:47;;;;;;;;;;;;;;;;;;4978141;28;20358;-93
2022/12/19 02:40:33;;;;;;;;;;;;;;;;;;4978317;28;19926;-94
2022/12/19 02:43:00;;;;;;;;;;;;;;;;;;4979529;28;19941;-95
2022/12/19 02:45:26;;;;;;;;;;;;;;;;;;4978521;28;20005;-91
2022/12/19 02:47:52;;;;;;;;;;;;;;;;;;4981746;28;19922;-94
2022/12/19 02:50:18;;;;;;;;;;;;;;;;;;4982249;28;20246;-94
2022/12/19 02:52:44;;;;;;;;;;;;;;;;;;4980833;28;19993;-94
2022/12/19 02:55:12;;;;;;;;;;;;;;;;;;4980505;28;19982;-93
2022/12/19 02:57:37;;;;;;;;;;;;;;;;;;4982534;28;19922;-94
2022/12/19 03:00:07;;;;;;;;;;;;;;;;;;4978292;28;19918;-93
2022/12/19 03:02:35;;;;;;;;;;;;;;;;;;4982024;28;19929;-93
2022/12/19 03:05:13;;;;;;;;;;;;;;;;;;4980196;28;19964;-94
2022/12/19 03:07:46;;;;;;;;;;;;;;;;;;4980276;28;20394;-94
2022/12/19 03:10:23;;;;;;;;;;;;;;;;;;4984995;28;20014;-93
2022/12/19 03:13:08;;;;;;;;;;;;;;;;;;4983122;28;19919;-93
2022/12/19 03:15:34;;;;;;;;;;;;;;;;;;4979913;28;20005;-93
2022/12/19 03:18:00;;;;;;;;;;;;;;;;;;4981933;28;19972;-94
2022/12/19 03:20:26;;;;;;;;;;;;;;;;;;4982497;28;20321;-93
2022/12/19 03:22:51;;;;;;;;;;;;;;;;;;4984018;28;19918;-94
2022/12/19 03:25:18;;;;;;;;;;;;;;;;;;4965832;28;19973;-94
2022/12/19 03:27:45;;;;;;;;;;;;;;;;;;4982276;28;20401;-90
2022/12/19 03:30:12;;;;;;;;;;;;;;;;;;4978293;28;20429;-91
2022/12/19 03:32:39;;;;;;;;;;;;;;;;;;4980038;28;19920;-92
2022/12/19 03:35:06;;;;;;;;;;;;;;;;;;4979290;28;19933;-92
2022/12/19 03:37:33;;;;;;;;;;;;;;;;;;4981366;28;19918;-92
2022/12/19 03:40:00;;;;;;;;;;;;;;;;;;4984536;28;19937;-91
2022/12/19 03:45:12;;;;;;;;;;;;;;;;;;4984786;28;19930;-89
2022/12/19 03:47:40;;;;;;;;;;;;;;;;;;4982449;28;19918;-91
2022/12/19 03:50:07;;;;;;;;;;;;;;;;;;4979600;28;19945;-90
2022/12/19 03:52:50;;;;;;;;;;;;;;;;;;4978078;28;19918;-90
2022/12/19 03:55:32;;;;;;;;;;;;;;;;;;4960326;28;19929;-91
2022/12/19 03:58:04;;;;;;;;;;;;;;;;;;4975697;28;20435;-89
2022/12/19 04:00:30;;;;;;;;;;;;;;;;;;4956803;29;19930;-91
2022/12/19 04:02:56;;;;;;;;;;;;;;;;;;4938865;29;19957;-92
2022/12/19 04:05:25;;;;;;;;;;;;;;;;;;4956777;28;20371;-92
2022/12/19 04:07:53;;;;;;;;;;;;;;;;;;4971474;28;19932;-92
2022/12/19 04:10:22;;;;;;;;;;;;;;;;;;4976839;28;19929;-90
2022/12/19 04:12:51;;;;;;;;;;;;;;;;;;4973846;28;19926;-91
2022/12/19 04:15:16;;;;;;;;;;;;;;;;;;4975091;28;20428;-89
2022/12/19 04:17:58;;;;;;;;;;;;;;;;;;4976291;28;19930;-92
2022/12/19 04:20:27;;;;;;;;;;;;;;;;;;4976574;28;19918;-89
2022/12/19 04:22:59;;;;;;;;;;;;;;;;;;4976486;28;19922;-90
2022/12/19 04:25:26;;;;;;;;;;;;;;;;;;4974579;28;19929;-93
2022/12/19 04:27:54;;;;;;;;;;;;;;;;;;4976400;28;20009;-91
2022/12/19 04:30:20;;;;;;;;;;;;;;;;;;4975136;28;19972;-90
2022/12/19 04:32:46;;;;;;;;;;;;;;;;;;4976731;28;20012;-93
2022/12/19 04:35:11;;;;;;;;;;;;;;;;;;4974730;28;19914;-91
2022/12/19 04:37:37;;;;;;;;;;;;;;;;;;4959415;28;19922;-89
2022/12/19 04:40:03;;;;;;;;;;;;;;;;;;4958130;28;19925;-89
2022/12/19 04:42:28;;;;;;;;;;;;;;;;;;4974848;28;19933;-90
2022/12/19 04:44:54;;;;;;;;;;;;;;;;;;4957962;28;19926;-92
2022/12/19 04:47:19;;;;;;;;;;;;;;;;;;4975862;28;19922;-89
2022/12/19 04:49:45;;;;;;;;;;;;;;;;;;4957224;28;19986;-91
2022/12/19 04:52:10;;;;;;;;;;;;;;;;;;4974459;28;19926;-91
2022/12/19 04:54:35;;;;;;;;;;;;;;;;;;4973950;28;19919;-89
2022/12/19 04:57:01;;;;;;;;;;;;;;;;;;4974037;28;20020;-92
2022/12/19 04:59:26;;;;;;;;;;;;;;;;;;4976847;28;19953;-90
2022/12/19 05:01:53;;;;;;;;;;;;;;;;;;4978706;28;19925;-92
2022/12/19 05:04:19;;;;;;;;;;;;;;;;;;4962218;28;19918;-89
2022/12/19 05:06:44;;;;;;;;;;;;;;;;;;4961658;28;19922;-90
2022/12/19 05:09:10;;;;;;;;;;;;;;;;;;4978901;28;19923;-90
2022/12/19 05:11:35;;;;;;;;;;;;;;;;;;4979977;28;20409;-90
2022/12/19 05:14:01;;;;;;;;;;;;;;;;;;4980436;28;19929;-91
2022/12/19 05:16:26;;;;;;;;;;;;;;;;;;4981470;28;20017;-91
2022/12/19 05:18:53;;;;;;;;;;;;;;;;;;4981270;28;19965;-89
2022/12/19 05:21:18;;;;;;;;;;;;;;;;;;4982077;28;19922;-90
2022/12/19 05:23:44;;;;;;;;;;;;;;;;;;4980265;28;20289;-91
2022/12/19 05:26:10;;;;;;;;;;;;;;;;;;4976810;28;19930;-90
2022/12/19 05:28:35;;;;;;;;;;;;;;;;;;4975790;28;19914;-90
2022/12/19 05:31:11;;;;;;;;;;;;;;;;;;4958692;28;19922;-89
2022/12/19 05:33:36;;;;;;;;;;;;;;;;;;4958619;28;19961;-92
2022/12/19 05:36:02;;;;;;;;;;;;;;;;;;4975628;28;19962;-91
2022/12/19 05:38:28;;;;;;;;;;;;;;;;;;4975635;28;19969;-90
2022/12/19 05:40:53;;;;;;;;;;;;;;;;;;4958433;28;19980;-91
2022/12/19 05:43:19;;;;;;;;;;;;;;;;;;4958400;28;19918;-90
2022/12/19 05:45:44;;;;;;;;;;;;;;;;;;4958084;28;19922;-91
2022/12/19 05:48:10;;;;;;;;;;;;;;;;;;4975678;28;19922;-91
2022/12/19 05:50:35;;;;;;;;;;;;;;;;;;4958503;28;20366;-90
2022/12/19 05:53:01;;;;;;;;;;;;;;;;;;4975871;28;20330;-93
2022/12/19 05:55:26;;;;;;;;;;;;;;;;;;4957893;28;19918;-89
2022/12/19 05:57:52;;;;;;;;;;;;;;;;;;4958043;28;20366;-91
2022/12/19 06:00:17;;;;;;;;;;;;;;;;;;4955083;29;20017;-90
2022/12/19 06:02:45;;;;;;;;;;;;;;;;;;4973380;28;19918;-91
2022/12/19 06:05:11;;;;;;;;;;;;;;;;;;4954959;29;19919;-89
2022/12/19 06:07:36;;;;;;;;;;;;;;;;;;4972656;28;19925;-92
2022/12/19 06:10:02;;;;;;;;;;;;;;;;;;4975417;28;19993;-91
2022/12/19 06:12:28;;;;;;;;;;;;;;;;;;4953932;29;19982;-89
2022/12/19 06:14:53;;;;;;;;;;;;;;;;;;4974714;28;19925;-91
2022/12/19 06:17:19;;;;;;;;;;;;;;;;;;4954623;28;20290;-92
2022/12/19 06:19:44;;;;;;;;;;;;;;;;;;4955962;28;19929;-91
2022/12/19 06:22:12;;;;;;;;;;;;;;;;;;4955014;28;19922;-92
2022/12/19 06:24:38;;;;;;;;;;;;;;;;;;4972397;28;19919;-91
2022/12/19 06:27:03;;;;;;;;;;;;;;;;;;4975602;28;19918;-91
2022/12/19 06:29:29;;;;;;;;;;;;;;;;;;4975157;28;19918;-92
2022/12/19 06:31:54;;;;;;;;;;;;;;;;;;4957127;28;19922;-91
2022/12/19 06:34:20;;;;;;;;;;;;;;;;;;4975086;28;19925;-92
2022/12/19 06:36:45;;;;;;;;;;;;;;;;;;4974718;28;19918;-92
2022/12/19 06:39:14;;;;;;;;;;;;;;;;;;4954712;29;20394;-90
2022/12/19 06:44:23;;;;;;;;;;;;;;;;;;4974753;28;20338;-93
2022/12/19 06:46:50;;;;;;;;;;;;;;;;;;4975198;28;19914;-91
2022/12/19 06:49:16;;;;;;;;;;;;;;;;;;4954198;28;19919;-91
2022/12/19 06:51:41;;;;;;;;;;;;;;;;;;4972378;28;19925;-92
2022/12/19 06:54:08;;;;;;;;;;;;;;;;;;4954469;28;20009;-91
2022/12/19 06:56:34;;;;;;;;;;;;;;;;;;4953838;28;20384;-91
2022/12/19 06:58:59;;;;;;;;;;;;;;;;;;4956941;28;19926;-91
2022/12/19 07:01:44;;;;;;;;;;;;;;;;;;4956951;28;19925;-90
2022/12/19 07:04:11;;;;;;;;;;;;;;;;;;4956706;28;19918;-91
2022/12/19 07:06:37;;;;;;;;;;;;;;;;;;4974613;28;19914;-91
2022/12/19 07:09:02;;;;;;;;;;;;;;;;;;4956724;28;19918;-90
2022/12/19 07:11:27;;;;;;;;;;;;;;;;;;4957195;28;19925;-91
2022/12/19 07:13:53;;;;;;;;;;;;;;;;;;4957218;28;19926;-93
2022/12/19 07:16:19;;;;;;;;;;;;;;;;;;4956602;28;20286;-91
2022/12/19 07:18:44;;;;;;;;;;;;;;;;;;4956821;28;19926;-91
2022/12/19 07:21:10;;;;;;;;;;;;;;;;;;4957265;28;20020;-91
2022/12/19 07:23:35;;;;;;;;;;;;;;;;;;4958508;28;19922;-91
2022/12/19 07:26:01;;;;;;;;;;;;;;;;;;4957630;28;19925;-91
2022/12/19 07:28:26;;;;;;;;;;;;;;;;;;4959267;28;20017;-91
2022/12/19 07:30:52;;;;;;;;;;;;;;;;;;4963568;28;19923;-91
2022/12/19 07:33:17;;;;;;;;;;;;;;;;;;4968651;28;19941;-92
2022/12/19 07:35:42;;;;;;;;;;;;;;;;;;4967400;28;19941;-91
2022/12/19 07:38:08;;;;;;;;;;;;;;;;;;4964509;28;19918;-89
2022/12/19 07:40:34;;;;;;;;;;;;;;;;;;4961053;28;20382;-92
2022/12/19 07:42:59;;;;;;;;;;;;;;;;;;4956781;28;19922;-89
2022/12/19 07:45:25;;;;;;;;;;;;;;;;;;4956482;28;20429;-90
2022/12/19 07:47:51;;;;;;;;;;;;;;;;;;4956447;28;19941;-90
2022/12/19 07:50:16;;;;;;;;;;;;;;;;;;4956068;28;20065;-91
2022/12/19 07:52:44;;;;;;;;;;;;;;;;;;4955812;28;20198;-90
2022/12/19 07:55:09;;;;;;;;;;;;;;;;;;4973473;28;19925;-90
2022/12/19 07:57:34;;;;;;;;;;;;;;;;;;4973136;28;20377;-90
2022/12/19 08:00:00;;;;;;;;;;;;;;;;;;4973440;28;19944;-89
2022/12/19 08:02:25;;;;;;;;;;;;;;;;;;4956017;28;19929;-90
2022/12/19 08:04:51;;;;;;;;;;;;;;;;;;4955634;28;19925;-89
2022/12/19 08:07:16;;;;;;;;;;;;;;;;;;4973370;28;19919;-89
2022/12/19 08:09:42;;;;;;;;;;;;;;;;;;4955811;28;19922;-89
2022/12/19 08:12:07;;;;;;;;;;;;;;;;;;4956382;28;19976;-90
2022/12/19 08:14:32;;;;;;;;;;;;;;;;;;4955815;28;19929;-91
2022/12/19 08:16:58;;;;;;;;;;;;;;;;;;4955682;28;19922;-90
2022/12/19 08:19:23;;;;;;;;;;;;;;;;;;4955507;28;19925;-90
2022/12/19 08:21:49;;;;;;;;;;;;;;;;;;4955747;28;19972;-90
2022/12/19 08:24:16;;;;;;;;;;;;;;;;;;4956087;28;19922;-90
2022/12/19 08:26:41;;;;;;;;;;;;;;;;;;4955663;28;19922;-89
2022/12/19 08:29:06;;;;;;;;;;;;;;;;;;4973416;28;19926;-93
2022/12/19 08:31:32;;;;;;;;;;;;;;;;;;4955631;28;19925;-92
2022/12/19 08:33:57;;;;;;;;;;;;;;;;;;4956378;28;19924;-89
2022/12/19 08:36:23;;;;;;;;;;;;;;;;;;4976442;28;19926;-89
2022/12/19 08:38:48;;;;;;;;;;;;;;;;;;4959242;28;19957;-89
2022/12/19 08:41:14;;;;;;;;;;;;;;;;;;4959498;28;19922;-88
2022/12/19 08:43:40;;;;;;;;;;;;;;;;;;4959338;28;20352;-89
2022/12/19 08:46:06;;;;;;;;;;;;;;;;;;4959344;28;20010;-89
2022/12/19 08:48:32;;;;;;;;;;;;;;;;;;4959130;28;19984;-91
2022/12/19 08:50:58;;;;;;;;;;;;;;;;;;4959196;28;19922;-90
2022/12/19 08:53:25;;;;;;;;;;;;;;;;;;4959189;28;19922;-92
2022/12/19 08:55:54;;;;;;;;;;;;;;;;;;4959100;28;19922;-90
2022/12/19 08:58:20;;;;;;;;;;;;;;;;;;4975858;28;20009;-91
2022/12/19 09:00:45;;;;;;;;;;;;;;;;;;4958806;28;20013;-90
2022/12/19 09:03:11;;;;;;;;;;;;;;;;;;4959448;28;19926;-91
2022/12/19 09:05:37;;;;;;;;;;;;;;;;;;4972339;28;19984;-91
2022/12/19 09:08:06;;;;;;;;;;;;;;;;;;4954400;28;20009;-91
2022/12/19 09:10:34;;;;;;;;;;;;;;;;;;4955440;28;19930;-91
2022/12/19 09:13:00;;;;;;;;;;;;;;;;;;4973402;28;19929;-90
2022/12/19 09:15:25;;;;;;;;;;;;;;;;;;4973223;28;19922;-89
2022/12/19 09:17:51;;;;;;;;;;;;;;;;;;4955840;28;19922;-91
2022/12/19 09:20:16;;;;;;;;;;;;;;;;;;4955785;28;19922;-89
2022/12/19 09:22:41;;;;;;;;;;;;;;;;;;4955618;28;19922;-91
2022/12/19 09:25:07;;;;;;;;;;;;;;;;;;4949309;29;20283;-91
2022/12/19 09:49:10;;;;;;;;;;;;;;;;;;4966324;23;19934;-93
2022/12/19 09:51:42;;;;;;;;;;;;;;;;;;4973050;28;19922;-92
2022/12/19 09:54:31;;;;;;;;;;;;;;;;;;4955643;28;19922;-91
2022/12/19 09:56:58;;;;;;;;;;;;;;;;;;4956663;28;19928;-92
2022/12/19 09:59:24;;;;;;;;;;;;;;;;;;4955383;28;19929;-91
2022/12/19 10:01:56;;;;;;;;;;;;;;;;;;4956768;28;19922;-91
2022/12/19 10:04:23;;;;;;;;;;;;;;;;;;4973190;28;19926;-91
2022/12/19 10:06:50;;;;;;;;;;;;;;;;;;4961252;28;19944;-92
2022/12/19 10:09:18;;;;;;;;;;;;;;;;;;4958537;28;19977;-91
2022/12/19 10:12:02;;;;;;;;;;;;;;;;;;4973787;28;19922;-92
2022/12/19 10:14:31;;;;;;;;;;;;;;;;;;4955580;28;19922;-92
2022/12/19 10:17:05;;;;;;;;;;;;;;;;;;4971743;28;19918;-91
2022/12/19 10:19:48;;;;;;;;;;;;;;;;;;4973359;28;20713;-92
2022/12/19 10:22:26;;;;;;;;;;;;;;;;;;4959890;28;19918;-92
2022/12/19 10:25:08;;;;;;;;;;;;;;;;;;4955569;28;19926;-92
2022/12/19 10:27:41;;;;;;;;;;;;;;;;;;4956181;28;20009;-92
2022/12/19 10:30:10;;;;;;;;;;;;;;;;;;4966276;28;19968;-95
2022/12/19 10:32:35;;;;;;;;;;;;;;;;;;4955104;28;19926;-95
2022/12/19 10:35:01;;;;;;;;;;;;;;;;;;4954918;28;20413;-92
2022/12/19 10:37:36;;;;;;;;;;;;;;;;;;4954878;28;19925;-91
2022/12/19 10:40:08;;;;;;;;;;;;;;;;;;4954291;28;19922;-91
2022/12/19 10:42:48;;;;;;;;;;;;;;;;;;4955023;28;19922;-90
2022/12/19 10:45:15;;;;;;;;;;;;;;;;;;4973562;28;19921;-92
2022/12/19 10:47:41;;;;;;;;;;;;;;;;;;4954204;28;20402;-91
2022/12/19 10:50:11;;;;;;;;;;;;;;;;;;4951147;29;20025;-91
2022/12/19 10:52:45;;;;;;;;;;;;;;;;;;4968842;28;19968;-92
2022/12/19 10:55:28;;;;;;;;;;;;;;;;;;4954689;28;20012;-92
2022/12/19 10:57:57;;;;;;;;;;;;;;;;;;4971898;28;19926;-93
2022/12/19 11:00:22;;;;;;;;;;;;;;;;;;4955090;28;20293;-93
2022/12/19 11:02:50;;;;;;;;;;;;;;;;;;4958039;28;19918;-92
2022/12/19 11:05:21;;;;;;;;;;;;;;;;;;4973441;28;19956;-91
2022/12/19 11:07:59;;;;;;;;;;;;;;;;;;4973441;28;19922;-92
2022/12/19 11:10:35;;;;;;;;;;;;;;;;;;4960576;28;19922;-90
2022/12/19 11:13:00;;;;;;;;;;;;;;;;;;4965035;28;19929;-90
2022/12/19 11:15:29;;;;;;;;;;;;;;;;;;4964467;28;19930;-90
2022/12/19 11:18:05;;;;;;;;;;;;;;;;;;4955275;28;19922;-91
2022/12/19 11:20:30;;;;;;;;;;;;;;;;;;4954412;28;19922;-90
2022/12/19 11:22:57;;;;;;;;;;;;;;;;;;4954515;28;19937;-90
2022/12/19 11:25:32;;;;;;;;;;;;;;;;;;4972308;28;19929;-91
2022/12/19 11:27:57;;;;;;;;;;;;;;;;;;4970322;28;20021;-89
2022/12/19 11:30:25;;;;;;;;;;;;;;;;;;4990347;28;20356;-91
2022/12/19 11:33:26;;;;;;;;;;;;;;;;;;4972971;28;20377;-89
2022/12/19 11:35:53;;;;;;;;;;;;;;;;;;4914990;29;19927;-91
2022/12/19 11:38:31;;;;;;;;;;;;;;;;;;4929577;29;19958;-90
2022/12/19 11:40:58;;;;;;;;;;;;;;;;;;4913397;29;20429;-90
2022/12/19 11:43:23;;;;;;;;;;;;;;;;;;4914075;29;19938;-92
2022/12/19 11:45:49;;;;;;;;;;;;;;;;;;4932728;29;19990;-92
2022/12/19 11:48:19;;;;;;;;;;;;;;;;;;4914719;29;19925;-91
2022/12/19 11:50:57;;;;;;;;;;;;;;;;;;4930102;29;19923;-92
2022/12/19 11:53:27;;;;;;;;;;;;;;;;;;4918634;29;19919;-92
2022/12/19 11:55:54;;;;;;;;;;;;;;;;;;4895288;29;19950;-92
2022/12/19 11:58:21;;;;;;;;;;;;;;;;;;4910312;29;20477;-91
2022/12/19 12:00:49;;;;;;;;;;;;;;;;;;4894013;29;19947;-92
2022/12/19 12:03:24;;;;;;;;;;;;;;;;;;4903772;29;19938;-91
2022/12/19 12:05:50;;;;;;;;;;;;;;;;;;4911670;29;20502;-91
2022/12/19 12:08:36;;;;;;;;;;;;;;;;;;4894449;29;19970;-91
2022/12/19 12:11:19;;;;;;;;;;;;;;;;;;4920469;28;19922;-91
2022/12/19 12:14:03;;;;;;;;;;;;;;;;;;4952922;28;19922;-92
2022/12/19 12:16:41;;;;;;;;;;;;;;;;;;4953309;28;19919;-92
2022/12/19 12:19:06;;;;;;;;;;;;;;;;;;4970435;28;20433;-92
2022/12/19 12:21:36;;;;;;;;;;;;;;;;;;4969924;28;19926;-91
2022/12/19 12:24:14;;;;;;;;;;;;;;;;;;4953099;28;19926;-90
2022/12/19 12:26:43;;;;;;;;;;;;;;;;;;4952569;28;19922;-91
2022/12/19 12:29:17;;;;;;;;;;;;;;;;;;4970331;28;20009;-91
2022/12/19 12:31:59;;;;;;;;;;;;;;;;;;4970417;28;19989;-91
2022/12/19 12:34:35;;;;;;;;;;;;;;;;;;4957699;28;19926;-90
2022/12/19 12:37:19;;;;;;;;;;;;;;;;;;4972501;28;19926;-92
2022/12/19 12:39:44;;;;;;;;;;;;;;;;;;4971297;28;19922;-89
2022/12/19 12:42:32;;;;;;;;;;;;;;;;;;4972481;28;19922;-92
2022/12/19 12:44:59;;;;;;;;;;;;;;;;;;4941035;28;20278;-90
2022/12/19 12:47:29;;;;;;;;;;;;;;;;;;4971681;28;20254;-91
2022/12/19 12:50:04;;;;;;;;;;;;;;;;;;4954906;28;19936;-90
2022/12/19 12:52:33;;;;;;;;;;;;;;;;;;4955265;28;19922;-93
2022/12/19 12:54:59;;;;;;;;;;;;;;;;;;4956559;28;20314;-91
2022/12/19 12:57:27;;;;;;;;;;;;;;;;;;4973605;28;19922;-91
2022/12/19 13:00:11;;;;;;;;;;;;;;;;;;4974351;28;19992;-93
2022/12/19 13:02:37;;;;;;;;;;;;;;;;;;4952398;28;20294;-92
2022/12/19 13:05:26;;;;;;;;;;;;;;;;;;4952759;28;19922;-91
2022/12/19 13:07:52;;;;;;;;;;;;;;;;;;4940193;28;19922;-93
2022/12/19 13:10:28;;;;;;;;;;;;;;;;;;4952224;28;19926;-91
2022/12/19 13:13:01;;;;;;;;;;;;;;;;;;4952360;28;20452;-91
2022/12/19 13:15:27;;;;;;;;;;;;;;;;;;4952762;28;19922;-90
2022/12/19 13:17:52;;;;;;;;;;;;;;;;;;4969604;28;19926;-90
2022/12/19 13:20:17;;;;;;;;;;;;;;;;;;4973263;28;20358;-91
2022/12/19 13:23:03;;;;;;;;;;;;;;;;;;4976228;28;20024;-91
2022/12/19 13:25:35;;;;;;;;;;;;;;;;;;4960773;28;19929;-91
2022/12/19 13:28:00;;;;;;;;;;;;;;;;;;4956250;28;20434;-92
2022/12/19 13:30:27;;;;;;;;;;;;;;;;;;4955654;28;19933;-91
2022/12/19 13:32:52;;;;;;;;;;;;;;;;;;4955832;28;20382;-91
2022/12/19 13:35:17;;;;;;;;;;;;;;;;;;4973220;28;20016;-91
2022/12/19 13:37:50;;;;;;;;;;;;;;;;;;4973446;28;20430;-92
2022/12/19 13:40:25;;;;;;;;;;;;;;;;;;4955361;28;19941;-91
2022/12/19 13:45:47;;;;;;;;;;;;;;;;;;4974920;28;19988;-92
2022/12/19 13:48:18;;;;;;;;;;;;;;;;;;4964400;28;19937;-91
2022/12/19 13:50:46;;;;;;;;;;;;;;;;;;4942870;28;19930;-93
2022/12/19 13:53:16;;;;;;;;;;;;;;;;;;4974663;28;19981;-91
2022/12/19 13:55:41;;;;;;;;;;;;;;;;;;4955424;28;19928;-93
2022/12/19 13:58:16;;;;;;;;;;;;;;;;;;4955672;28;19922;-93
2022/12/19 14:00:41;;;;;;;;;;;;;;;;;;4968738;28;19922;-94
2022/12/19 14:03:14;;;;;;;;;;;;;;;;;;4974893;28;20275;-92
2022/12/19 14:05:39;;;;;;;;;;;;;;;;;;4974874;28;20155;-93
2022/12/19 14:08:06;;;;;;;;;;;;;;;;;;4974333;28;20404;-94
2022/12/19 14:10:33;;;;;;;;;;;;;;;;;;4974969;28;19948;-93
2022/12/19 14:15:44;;;;;;;;;;;;;;;;;;4992494;28;20060;-92
2022/12/19 14:18:22;;;;;;;;;;;;;;;;;;4964925;28;19929;-96
2022/12/19 14:20:49;;;;;;;;;;;;;;;;;;4955431;28;19922;-90
2022/12/19 14:23:14;;;;;;;;;;;;;;;;;;4957090;28;19961;-90
2022/12/19 14:25:50;;;;;;;;;;;;;;;;;;4974139;28;19976;-93
2022/12/19 14:28:22;;;;;;;;;;;;;;;;;;4953563;28;19922;-92
2022/12/19 14:30:49;;;;;;;;;;;;;;;;;;4957225;28;19925;-92
2022/12/19 14:33:26;;;;;;;;;;;;;;;;;;4972038;28;20395;-91
2022/12/19 14:35:53;;;;;;;;;;;;;;;;;;4990710;28;19926;-92
2022/12/19 14:38:19;;;;;;;;;;;;;;;;;;4972348;28;19918;-92
2022/12/19 14:40:45;;;;;;;;;;;;;;;;;;4972969;28;19922;-92
2022/12/19 14:43:42;;;;;;;;;;;;;;;;;;4972259;28;19921;-93
2022/12/19 14:46:19;;;;;;;;;;;;;;;;;;4973434;23;19922;-92
2022/12/19 14:48:58;;;;;;;;;;;;;;;;;;4915875;29;19930;-91
2022/12/19 14:51:36;;;;;;;;;;;;;;;;;;4917197;29;19931;-92
2022/12/19 14:54:08;;;;;;;;;;;;;;;;;;4917275;29;19925;-91
2022/12/19 14:56:43;;;;;;;;;;;;;;;;;;4933600;29;20033;-93
2022/12/19 14:59:26;;;;;;;;;;;;;;;;;;4934476;29;19941;-91
2022/12/19 15:02:00;;;;;;;;;;;;;;;;;;4936275;29;19915;-91
2022/12/19 15:04:29;;;;;;;;;;;;;;;;;;4919503;29;19930;-92
2022/12/19 15:06:56;;;;;;;;;;;;;;;;;;4919352;29;19923;-92
2022/12/19 15:09:22;;;;;;;;;;;;;;;;;;4924818;29;19918;-91
2022/12/19 15:14:43;;;;;;;;;;;;;;;;;;4941240;29;19950;-92
2022/12/19 15:17:23;;;;;;;;;;;;;;;;;;4944848;29;19918;-91
2022/12/19 15:19:49;;;;;;;;;;;;;;;;;;4929338;29;20039;-92
2022/12/19 15:22:15;;;;;;;;;;;;;;;;;;4933317;29;19923;-91
2022/12/19 15:24:40;;;;;;;;;;;;;;;;;;4932797;29;19929;-92
2022/12/19 15:27:16;;;;;;;;;;;;;;;;;;4916524;29;20030;-91
2022/12/19 15:29:42;;;;;;;;;;;;;;;;;;4916248;29;19962;-92
2022/12/19 15:32:14;;;;;;;;;;;;;;;;;;4915351;29;20347;-92
2022/12/19 15:34:42;;;;;;;;;;;;;;;;;;4931961;29;19997;-92
2022/12/19 15:37:11;;;;;;;;;;;;;;;;;;4915123;29;20009;-91
2022/12/19 15:39:37;;;;;;;;;;;;;;;;;;4932076;29;19957;-94
2022/12/19 15:42:03;;;;;;;;;;;;;;;;;;4932010;29;20315;-92
2022/12/19 15:44:33;;;;;;;;;;;;;;;;;;4914425;29;19946;-93
2022/12/19 15:46:59;;;;;;;;;;;;;;;;;;4915161;29;20028;-92
2022/12/19 15:49:25;;;;;;;;;;;;;;;;;;4915316;29;20354;-93
2022/12/19 15:51:50;;;;;;;;;;;;;;;;;;4912012;29;19966;-92
2022/12/19 15:54:16;;;;;;;;;;;;;;;;;;4896807;29;19929;-93
2022/12/19 15:56:45;;;;;;;;;;;;;;;;;;4906941;29;19931;-92
2022/12/19 15:59:22;;;;;;;;;;;;;;;;;;4895667;29;19922;-92
2022/12/19 16:01:50;;;;;;;;;;;;;;;;;;4896061;29;20035;-93
2022/12/19 16:04:20;;;;;;;;;;;;;;;;;;4899645;29;20379;-92
2022/12/19 16:06:46;;;;;;;;;;;;;;;;;;4914947;29;19926;-92
2022/12/19 16:09:19;;;;;;;;;;;;;;;;;;4931777;29;19934;-93
2022/12/19 16:11:45;;;;;;;;;;;;;;;;;;4915017;29;19922;-93
2022/12/19 16:14:13;;;;;;;;;;;;;;;;;;4915881;29;20307;-92
2022/12/19 16:16:39;;;;;;;;;;;;;;;;;;4914502;29;19926;-92
2022/12/19 16:19:25;;;;;;;;;;;;;;;;;;4931878;29;19938;-92
2022/12/19 16:21:51;;;;;;;;;;;;;;;;;;4914860;29;19923;-92
2022/12/19 16:24:17;;;;;;;;;;;;;;;;;;4895990;29;20303;-92
2022/12/19 16:26:51;;;;;;;;;;;;;;;;;;4931641;29;19919;-91
2022/12/19 16:29:22;;;;;;;;;;;;;;;;;;4950469;29;19930;-91
2022/12/19 16:31:47;;;;;;;;;;;;;;;;;;4951049;29;19928;-93
2022/12/19 16:34:13;;;;;;;;;;;;;;;;;;4949989;29;19926;-91
2022/12/19 16:36:39;;;;;;;;;;;;;;;;;;4951524;29;20374;-93
2022/12/19 16:39:04;;;;;;;;;;;;;;;;;;4949679;29;19923;-93
2022/12/19 16:41:30;;;;;;;;;;;;;;;;;;4932082;29;19953;-92
2022/12/19 16:43:55;;;;;;;;;;;;;;;;;;4914371;29;20363;-92
2022/12/19 16:46:22;;;;;;;;;;;;;;;;;;4929921;29;20026;-93
2022/12/19 16:48:48;;;;;;;;;;;;;;;;;;4914806;29;19926;-92
2022/12/19 16:51:21;;;;;;;;;;;;;;;;;;4912976;29;20398;-92
2022/12/19 16:53:47;;;;;;;;;;;;;;;;;;4958249;23;19930;-92
2022/12/19 16:56:23;;;;;;;;;;;;;;;;;;4972797;28;19926;-92
2022/12/19 16:58:49;;;;;;;;;;;;;;;;;;4957260;28;19926;-91
2022/12/19 17:01:14;;;;;;;;;;;;;;;;;;4956155;28;20430;-90
2022/12/19 17:03:42;;;;;;;;;;;;;;;;;;4955998;28;20382;-93
2022/12/19 17:06:14;;;;;;;;;;;;;;;;;;4967272;28;19923;-94
2022/12/19 17:08:40;;;;;;;;;;;;;;;;;;4954207;29;19926;-92
2022/12/19 17:11:10;;;;;;;;;;;;;;;;;;4938100;28;19973;-92
2022/12/19 17:13:36;;;;;;;;;;;;;;;;;;4937350;29;19969;-91
2022/12/19 17:16:02;;;;;;;;;;;;;;;;;;4937227;29;19919;-93
2022/12/19 17:18:28;;;;;;;;;;;;;;;;;;4937064;29;20238;-94
2022/12/19 17:20:54;;;;;;;;;;;;;;;;;;4936840;29;19923;-92
2022/12/19 17:23:20;;;;;;;;;;;;;;;;;;4954490;29;19923;-92
2022/12/19 17:25:46;;;;;;;;;;;;;;;;;;4965082;28;19929;-91
2022/12/19 17:28:12;;;;;;;;;;;;;;;;;;4956613;28;19918;-93
2022/12/19 17:30:40;;;;;;;;;;;;;;;;;;4956635;28;19929;-92